sensor_id;sensor_type;location;lat;lon;timestamp;temperature;humidity
3846;DHT22;1938;50.812;7.738;2023-08-30T00:01:22;12.40;99.90
3846;DHT22;1938;50.812;7.738;2023-08-30T00:03:47;12.40;99.90
3846;DHT22;1938;50.812;7.738;2023-08-30T00:06:13;12.40;99.90
3846;DHT22;1938;50.812;7.738;2023-08-30T00:08:38;12.50;99.90
3846;DHT22;1938;50.812;7.738;2023-08-30T00:11:04;12.40;99.90
3846;DHT22;1938;50.812;7.738;2023-08-30T00:13:30;12.30;99.90
3846;DHT22;1938;50.812;7.738;2023-08-30T00:15:57;12.30;99.90
3846;DHT22;1938;50.812;7.738;2023-08-30T00:18:23;12.30;99.90
3846;DHT22;1938;50.812;7.738;2023-08-30T00:20:49;12.40;99.90
3846;DHT22;1938;50.812;7.738;2023-08-30T00:23:14;12.40;99.90
3846;DHT22;1938;50.812;7.738;2023-08-30T00:25:41;12.40;99.90
3846;DHT22;1938;50.812;7.738;2023-08-30T00:28:07;12.40;99.90
3846;DHT22;1938;50.812;7.738;2023-08-30T00:30:32;12.30;99.90
3846;DHT22;1938;50.812;7.738;2023-08-30T00:32:58;12.40;99.90
3846;DHT22;1938;50.812;7.738;2023-08-30T00:35:23;12.40;99.90
3846;DHT22;1938;50.812;7.738;2023-08-30T00:37:49;12.50;99.90
3846;DHT22;1938;50.812;7.738;2023-08-30T00:40:14;12.50;99.90
3846;DHT22;1938;50.812;7.738;2023-08-30T00:42:40;12.40;99.90
3846;DHT22;1938;50.812;7.738;2023-08-30T00:45:06;12.40;99.90
3846;DHT22;1938;50.812;7.738;2023-08-30T00:47:33;12.30;99.90
3846;DHT22;1938;50.812;7.738;2023-08-30T00:49:59;12.30;99.90
3846;DHT22;1938;50.812;7.738;2023-08-30T00:52:25;12.30;99.90
3846;DHT22;1938;50.812;7.738;2023-08-30T00:54:50;12.30;99.90
3846;DHT22;1938;50.812;7.738;2023-08-30T00:57:16;12.30;99.90
3846;DHT22;1938;50.812;7.738;2023-08-30T00:59:41;12.30;99.90
3846;DHT22;1938;50.812;7.738;2023-08-30T01:02:07;12.30;99.90
3846;DHT22;1938;50.812;7.738;2023-08-30T01:04:33;12.30;99.90
3846;DHT22;1938;50.812;7.738;2023-08-30T01:07:00;12.20;99.90
3846;DHT22;1938;50.812;7.738;2023-08-30T01:09:26;12.20;99.90
3846;DHT22;1938;50.812;7.738;2023-08-30T01:14:43;12.10;99.90
3846;DHT22;1938;50.812;7.738;2023-08-30T01:17:11;11.90;99.90
3846;DHT22;1938;50.812;7.738;2023-08-30T01:20:06;11.90;99.90
3846;DHT22;1938;50.812;7.738;2023-08-30T01:32:48;11.60;99.90
3846;DHT22;1938;50.812;7.738;2023-08-30T01:35:14;11.60;99.90
3846;DHT22;1938;50.812;7.738;2023-08-30T01:37:45;11.70;99.90
3846;DHT22;1938;50.812;7.738;2023-08-30T01:40:11;11.80;99.90
3846;DHT22;1938;50.812;7.738;2023-08-30T01:42:39;11.80;99.90
3846;DHT22;1938;50.812;7.738;2023-08-30T01:45:06;11.90;99.90
3846;DHT22;1938;50.812;7.738;2023-08-30T01:47:34;11.90;99.90
3846;DHT22;1938;50.812;7.738;2023-08-30T01:50:00;11.90;99.90
3846;DHT22;1938;50.812;7.738;2023-08-30T01:52:26;11.90;99.90
3846;DHT22;1938;50.812;7.738;2023-08-30T01:54:52;11.90;99.90
3846;DHT22;1938;50.812;7.738;2023-08-30T01:57:20;11.90;99.90
3846;DHT22;1938;50.812;7.738;2023-08-30T01:59:46;11.80;99.90
3846;DHT22;1938;50.812;7.738;2023-08-30T02:02:13;11.80;99.90
3846;DHT22;1938;50.812;7.738;2023-08-30T02:04:38;11.80;99.90
3846;DHT22;1938;50.812;7.738;2023-08-30T02:07:08;11.80;99.90
3846;DHT22;1938;50.812;7.738;2023-08-30T02:09:50;11.70;99.90
3846;DHT22;1938;50.812;7.738;2023-08-30T02:12:20;11.60;99.90
3846;DHT22;1938;50.812;7.738;2023-08-30T02:14:49;11.50;99.90
3846;DHT22;1938;50.812;7.738;2023-08-30T02:17:15;11.40;99.90
3846;DHT22;1938;50.812;7.738;2023-08-30T02:19:42;11.40;99.90
3846;DHT22;1938;50.812;7.738;2023-08-30T02:22:09;11.30;99.90
3846;DHT22;1938;50.812;7.738;2023-08-30T02:24:35;11.30;99.90
3846;DHT22;1938;50.812;7.738;2023-08-30T02:27:01;11.30;99.90
3846;DHT22;1938;50.812;7.738;2023-08-30T02:29:26;11.30;99.90
3846;DHT22;1938;50.812;7.738;2023-08-30T02:31:52;11.30;99.90
3846;DHT22;1938;50.812;7.738;2023-08-30T02:34:17;11.30;99.90
3846;DHT22;1938;50.812;7.738;2023-08-30T02:36:43;11.30;99.90
3846;DHT22;1938;50.812;7.738;2023-08-30T02:39:08;11.30;99.90
3846;DHT22;1938;50.812;7.738;2023-08-30T02:41:34;11.30;99.90
3846;DHT22;1938;50.812;7.738;2023-08-30T02:44:00;11.30;99.90
3846;DHT22;1938;50.812;7.738;2023-08-30T02:46:26;11.20;99.90
3846;DHT22;1938;50.812;7.738;2023-08-30T02:48:52;11.20;99.90
3846;DHT22;1938;50.812;7.738;2023-08-30T02:51:17;11.20;99.90
3846;DHT22;1938;50.812;7.738;2023-08-30T02:53:43;11.20;99.90
3846;DHT22;1938;50.812;7.738;2023-08-30T02:56:09;11.20;99.90
3846;DHT22;1938;50.812;7.738;2023-08-30T02:58:37;11.10;99.90
3846;DHT22;1938;50.812;7.738;2023-08-30T03:01:03;11.10;99.90
3846;DHT22;1938;50.812;7.738;2023-08-30T03:03:29;11.00;99.90
3846;DHT22;1938;50.812;7.738;2023-08-30T03:05:55;11.00;99.90
3846;DHT22;1938;50.812;7.738;2023-08-30T03:08:20;11.00;99.90
3846;DHT22;1938;50.812;7.738;2023-08-30T03:10:46;11.00;99.90
3846;DHT22;1938;50.812;7.738;2023-08-30T03:13:11;10.90;99.90
3846;DHT22;1938;50.812;7.738;2023-08-30T03:15:37;10.90;99.90
3846;DHT22;1938;50.812;7.738;2023-08-30T03:18:04;10.80;99.90
3846;DHT22;1938;50.812;7.738;2023-08-30T03:20:29;10.60;99.90
3846;DHT22;1938;50.812;7.738;2023-08-30T03:22:58;10.60;99.90
3846;DHT22;1938;50.812;7.738;2023-08-30T03:25:24;10.50;99.90
3846;DHT22;1938;50.812;7.738;2023-08-30T03:27:49;10.40;99.90
3846;DHT22;1938;50.812;7.738;2023-08-30T03:30:15;10.30;99.90
3846;DHT22;1938;50.812;7.738;2023-08-30T03:32:41;10.40;99.90
3846;DHT22;1938;50.812;7.738;2023-08-30T03:35:07;10.30;99.90
3846;DHT22;1938;50.812;7.738;2023-08-30T03:37:33;10.10;99.90
3846;DHT22;1938;50.812;7.738;2023-08-30T03:39:59;10.10;99.90
3846;DHT22;1938;50.812;7.738;2023-08-30T03:42:24;10.10;99.90
3846;DHT22;1938;50.812;7.738;2023-08-30T03:44:50;10.20;99.90
3846;DHT22;1938;50.812;7.738;2023-08-30T03:47:16;10.20;99.90
3846;DHT22;1938;50.812;7.738;2023-08-30T03:49:41;10.20;99.90
3846;DHT22;1938;50.812;7.738;2023-08-30T03:52:08;10.20;99.90
3846;DHT22;1938;50.812;7.738;2023-08-30T03:54:34;10.10;99.90
3846;DHT22;1938;50.812;7.738;2023-08-30T03:56:59;10.10;99.90
3846;DHT22;1938;50.812;7.738;2023-08-30T03:59:25;10.20;99.90
3846;DHT22;1938;50.812;7.738;2023-08-30T04:01:52;10.20;99.90
3846;DHT22;1938;50.812;7.738;2023-08-30T04:04:18;10.30;99.90
3846;DHT22;1938;50.812;7.738;2023-08-30T04:06:45;10.40;99.90
3846;DHT22;1938;50.812;7.738;2023-08-30T04:09:10;10.50;99.90
3846;DHT22;1938;50.812;7.738;2023-08-30T04:11:36;10.60;99.90
3846;DHT22;1938;50.812;7.738;2023-08-30T04:14:01;10.70;99.90
3846;DHT22;1938;50.812;7.738;2023-08-30T04:16:27;10.70;99.90
3846;DHT22;1938;50.812;7.738;2023-08-30T04:18:53;10.70;99.90
3846;DHT22;1938;50.812;7.738;2023-08-30T04:21:19;10.70;99.90
3846;DHT22;1938;50.812;7.738;2023-08-30T04:23:44;10.60;99.90
3846;DHT22;1938;50.812;7.738;2023-08-30T04:26:10;10.70;99.90
3846;DHT22;1938;50.812;7.738;2023-08-30T04:28:35;10.60;99.90
3846;DHT22;1938;50.812;7.738;2023-08-30T04:31:01;10.70;99.90
3846;DHT22;1938;50.812;7.738;2023-08-30T04:33:27;10.70;99.90
3846;DHT22;1938;50.812;7.738;2023-08-30T04:35:53;10.80;99.90
3846;DHT22;1938;50.812;7.738;2023-08-30T04:38:19;10.90;99.90
3846;DHT22;1938;50.812;7.738;2023-08-30T04:40:46;11.00;99.90
3846;DHT22;1938;50.812;7.738;2023-08-30T04:43:11;11.10;99.90
3846;DHT22;1938;50.812;7.738;2023-08-30T04:45:37;11.20;99.90
3846;DHT22;1938;50.812;7.738;2023-08-30T04:48:03;11.30;99.90
3846;DHT22;1938;50.812;7.738;2023-08-30T04:50:29;11.30;99.90
3846;DHT22;1938;50.812;7.738;2023-08-30T04:52:57;11.40;99.90
3846;DHT22;1938;50.812;7.738;2023-08-30T04:55:28;11.40;99.90
3846;DHT22;1938;50.812;7.738;2023-08-30T04:57:54;11.40;99.90
3846;DHT22;1938;50.812;7.738;2023-08-30T05:00:20;11.50;99.90
3846;DHT22;1938;50.812;7.738;2023-08-30T05:02:46;11.60;99.90
3846;DHT22;1938;50.812;7.738;2023-08-30T05:05:12;11.60;99.90
3846;DHT22;1938;50.812;7.738;2023-08-30T05:07:38;11.60;99.90
3846;DHT22;1938;50.812;7.738;2023-08-30T05:10:05;11.60;99.90
3846;DHT22;1938;50.812;7.738;2023-08-30T05:12:30;11.50;99.90
3846;DHT22;1938;50.812;7.738;2023-08-30T05:14:56;11.30;99.90
3846;DHT22;1938;50.812;7.738;2023-08-30T05:17:22;11.30;99.90
3846;DHT22;1938;50.812;7.738;2023-08-30T05:19:47;11.40;99.90
3846;DHT22;1938;50.812;7.738;2023-08-30T05:22:13;11.50;99.90
3846;DHT22;1938;50.812;7.738;2023-08-30T05:24:38;11.60;99.90
3846;DHT22;1938;50.812;7.738;2023-08-30T05:27:04;11.70;99.90
3846;DHT22;1938;50.812;7.738;2023-08-30T05:29:30;11.80;99.90
3846;DHT22;1938;50.812;7.738;2023-08-30T05:31:55;11.90;99.90
3846;DHT22;1938;50.812;7.738;2023-08-30T05:34:21;11.90;99.90
3846;DHT22;1938;50.812;7.738;2023-08-30T05:36:46;11.90;99.90
3846;DHT22;1938;50.812;7.738;2023-08-30T05:39:12;11.90;99.90
3846;DHT22;1938;50.812;7.738;2023-08-30T05:41:38;11.80;99.90
3846;DHT22;1938;50.812;7.738;2023-08-30T05:44:04;11.80;99.90
3846;DHT22;1938;50.812;7.738;2023-08-30T05:46:29;11.80;99.90
3846;DHT22;1938;50.812;7.738;2023-08-30T05:48:55;11.90;99.90
3846;DHT22;1938;50.812;7.738;2023-08-30T05:51:20;12.20;99.90
3846;DHT22;1938;50.812;7.738;2023-08-30T05:53:46;12.30;99.90
3846;DHT22;1938;50.812;7.738;2023-08-30T05:56:12;12.50;99.90
3846;DHT22;1938;50.812;7.738;2023-08-30T05:58:37;12.70;99.90
3846;DHT22;1938;50.812;7.738;2023-08-30T06:01:04;12.70;99.90
3846;DHT22;1938;50.812;7.738;2023-08-30T06:03:32;12.90;99.90
3846;DHT22;1938;50.812;7.738;2023-08-30T06:05:58;13.20;99.90
3846;DHT22;1938;50.812;7.738;2023-08-30T06:08:23;13.10;99.90
3846;DHT22;1938;50.812;7.738;2023-08-30T06:10:50;13.50;99.90
3846;DHT22;1938;50.812;7.738;2023-08-30T06:13:15;13.90;99.90
3846;DHT22;1938;50.812;7.738;2023-08-30T06:15:41;14.10;95.70
3846;DHT22;1938;50.812;7.738;2023-08-30T06:18:07;14.20;1.00
3846;DHT22;1938;50.812;7.738;2023-08-30T06:20:32;14.30;1.00
3846;DHT22;1938;50.812;7.738;2023-08-30T06:22:58;14.30;56.10
3846;DHT22;1938;50.812;7.738;2023-08-30T06:25:24;14.50;1.00
3846;DHT22;1938;50.812;7.738;2023-08-30T06:27:59;14.90;99.90
3846;DHT22;1938;50.812;7.738;2023-08-30T06:30:27;15.20;99.90
3846;DHT22;1938;50.812;7.738;2023-08-30T06:32:54;15.50;99.90
3846;DHT22;1938;50.812;7.738;2023-08-30T06:35:19;15.60;64.00
3846;DHT22;1938;50.812;7.738;2023-08-30T06:37:45;15.80;1.00
3846;DHT22;1938;50.812;7.738;2023-08-30T06:40:10;16.00;1.00
3846;DHT22;1938;50.812;7.738;2023-08-30T06:42:36;15.90;1.00
3846;DHT22;1938;50.812;7.738;2023-08-30T06:45:02;16.00;99.90
3846;DHT22;1938;50.812;7.738;2023-08-30T06:47:28;16.30;1.00
3846;DHT22;1938;50.812;7.738;2023-08-30T06:49:54;16.50;1.00
3846;DHT22;1938;50.812;7.738;2023-08-30T06:52:20;16.90;99.90
3846;DHT22;1938;50.812;7.738;2023-08-30T06:54:46;17.10;82.50
3846;DHT22;1938;50.812;7.738;2023-08-30T06:57:11;17.50;92.70
3846;DHT22;1938;50.812;7.738;2023-08-30T06:59:37;17.80;1.00
3846;DHT22;1938;50.812;7.738;2023-08-30T07:02:03;18.30;1.00
3846;DHT22;1938;50.812;7.738;2023-08-30T07:04:29;18.80;1.00
3846;DHT22;1938;50.812;7.738;2023-08-30T07:06:55;19.40;1.00
3846;DHT22;1938;50.812;7.738;2023-08-30T07:09:20;19.90;99.90
3846;DHT22;1938;50.812;7.738;2023-08-30T07:11:48;20.10;99.90
3846;DHT22;1938;50.812;7.738;2023-08-30T07:14:14;20.40;99.90
3846;DHT22;1938;50.812;7.738;2023-08-30T07:16:40;20.30;99.90
3846;DHT22;1938;50.812;7.738;2023-08-30T07:19:07;20.40;99.90
3846;DHT22;1938;50.812;7.738;2023-08-30T07:21:33;20.50;99.90
3846;DHT22;1938;50.812;7.738;2023-08-30T07:24:02;20.40;99.90
3846;DHT22;1938;50.812;7.738;2023-08-30T07:26:27;20.30;99.90
3846;DHT22;1938;50.812;7.738;2023-08-30T07:28:54;20.50;99.90
3846;DHT22;1938;50.812;7.738;2023-08-30T07:31:20;20.70;99.90
3846;DHT22;1938;50.812;7.738;2023-08-30T07:33:46;21.10;99.90
3846;DHT22;1938;50.812;7.738;2023-08-30T07:36:12;20.80;99.90
3846;DHT22;1938;50.812;7.738;2023-08-30T07:38:39;21.20;99.90
3846;DHT22;1938;50.812;7.738;2023-08-30T07:41:04;21.70;99.90
3846;DHT22;1938;50.812;7.738;2023-08-30T07:43:30;22.50;99.90
3846;DHT22;1938;50.812;7.738;2023-08-30T07:45:55;23.30;99.90
3846;DHT22;1938;50.812;7.738;2023-08-30T07:48:22;23.70;98.80
3846;DHT22;1938;50.812;7.738;2023-08-30T07:50:47;24.50;99.90
3846;DHT22;1938;50.812;7.738;2023-08-30T07:53:13;25.20;99.90
3846;DHT22;1938;50.812;7.738;2023-08-30T07:55:38;25.90;99.90
3846;DHT22;1938;50.812;7.738;2023-08-30T07:58:04;26.60;99.90
3846;DHT22;1938;50.812;7.738;2023-08-30T08:00:30;27.50;99.90
3846;DHT22;1938;50.812;7.738;2023-08-30T08:02:56;28.30;99.90
3846;DHT22;1938;50.812;7.738;2023-08-30T08:05:22;29.00;99.90
3846;DHT22;1938;50.812;7.738;2023-08-30T08:07:51;29.50;99.90
3846;DHT22;1938;50.812;7.738;2023-08-30T08:10:17;29.80;99.90
3846;DHT22;1938;50.812;7.738;2023-08-30T08:12:42;30.30;99.90
3846;DHT22;1938;50.812;7.738;2023-08-30T08:15:08;30.50;99.90
3846;DHT22;1938;50.812;7.738;2023-08-30T08:17:34;31.30;99.90
3846;DHT22;1938;50.812;7.738;2023-08-30T08:19:59;31.80;99.90
3846;DHT22;1938;50.812;7.738;2023-08-30T08:22:25;32.20;99.90
3846;DHT22;1938;50.812;7.738;2023-08-30T08:24:50;32.70;99.90
3846;DHT22;1938;50.812;7.738;2023-08-30T08:27:17;32.70;99.90
3846;DHT22;1938;50.812;7.738;2023-08-30T08:29:42;32.70;99.90
3846;DHT22;1938;50.812;7.738;2023-08-30T08:32:08;33.30;99.90
3846;DHT22;1938;50.812;7.738;2023-08-30T08:34:34;33.40;99.90
3846;DHT22;1938;50.812;7.738;2023-08-30T08:36:59;33.50;99.90
3846;DHT22;1938;50.812;7.738;2023-08-30T08:39:25;33.50;99.90
3846;DHT22;1938;50.812;7.738;2023-08-30T08:41:51;33.40;99.90
3846;DHT22;1938;50.812;7.738;2023-08-30T08:44:21;33.30;99.90
3846;DHT22;1938;50.812;7.738;2023-08-30T08:46:48;33.50;99.90
3846;DHT22;1938;50.812;7.738;2023-08-30T08:49:16;33.70;99.90
3846;DHT22;1938;50.812;7.738;2023-08-30T08:51:43;34.50;99.90
3846;DHT22;1938;50.812;7.738;2023-08-30T08:54:10;34.80;99.90
3846;DHT22;1938;50.812;7.738;2023-08-30T08:56:37;35.10;99.90
3846;DHT22;1938;50.812;7.738;2023-08-30T08:59:04;35.20;99.90
3846;DHT22;1938;50.812;7.738;2023-08-30T09:01:34;34.50;99.90
3846;DHT22;1938;50.812;7.738;2023-08-30T09:04:08;34.40;99.90
3846;DHT22;1938;50.812;7.738;2023-08-30T09:06:35;34.50;99.90
3846;DHT22;1938;50.812;7.738;2023-08-30T09:09:04;34.70;99.90
3846;DHT22;1938;50.812;7.738;2023-08-30T09:11:30;34.80;99.90
3846;DHT22;1938;50.812;7.738;2023-08-30T09:13:57;34.60;99.90
3846;DHT22;1938;50.812;7.738;2023-08-30T09:16:22;34.10;99.90
3846;DHT22;1938;50.812;7.738;2023-08-30T09:18:59;34.00;99.90
3846;DHT22;1938;50.812;7.738;2023-08-30T09:21:24;33.70;99.90
3846;DHT22;1938;50.812;7.738;2023-08-30T09:24:00;33.00;95.90
3846;DHT22;1938;50.812;7.738;2023-08-30T09:26:27;32.20;57.30
3846;DHT22;1938;50.812;7.738;2023-08-30T09:29:03;31.30;28.60
3846;DHT22;1938;50.812;7.738;2023-08-30T09:31:35;30.70;11.60
3846;DHT22;1938;50.812;7.738;2023-08-30T09:34:05;29.70;1.00
3846;DHT22;1938;50.812;7.738;2023-08-30T09:36:38;29.20;1.00
3846;DHT22;1938;50.812;7.738;2023-08-30T09:39:05;28.50;1.00
3846;DHT22;1938;50.812;7.738;2023-08-30T09:41:31;27.80;1.00
3846;DHT22;1938;50.812;7.738;2023-08-30T09:43:59;27.40;1.00
3846;DHT22;1938;50.812;7.738;2023-08-30T09:46:25;27.20;1.00
3846;DHT22;1938;50.812;7.738;2023-08-30T09:48:52;26.90;1.00
3846;DHT22;1938;50.812;7.738;2023-08-30T09:51:20;26.60;1.00
3846;DHT22;1938;50.812;7.738;2023-08-30T09:53:49;26.40;1.00
3846;DHT22;1938;50.812;7.738;2023-08-30T09:56:19;26.10;1.00
3846;DHT22;1938;50.812;7.738;2023-08-30T09:58:47;25.80;1.00
3846;DHT22;1938;50.812;7.738;2023-08-30T10:01:13;25.50;1.00
3846;DHT22;1938;50.812;7.738;2023-08-30T10:03:40;25.30;1.00
3846;DHT22;1938;50.812;7.738;2023-08-30T10:06:06;25.20;1.00
3846;DHT22;1938;50.812;7.738;2023-08-30T10:08:33;25.10;99.90
3846;DHT22;1938;50.812;7.738;2023-08-30T10:10:59;25.30;99.90
3846;DHT22;1938;50.812;7.738;2023-08-30T10:13:25;25.10;99.90
3846;DHT22;1938;50.812;7.738;2023-08-30T10:15:55;25.00;99.90
3846;DHT22;1938;50.812;7.738;2023-08-30T10:18:25;24.80;99.90
3846;DHT22;1938;50.812;7.738;2023-08-30T10:20:54;24.90;99.90
3846;DHT22;1938;50.812;7.738;2023-08-30T10:23:21;24.90;99.90
3846;DHT22;1938;50.812;7.738;2023-08-30T10:25:49;24.80;99.90
3846;DHT22;1938;50.812;7.738;2023-08-30T10:28:16;24.70;99.90
3846;DHT22;1938;50.812;7.738;2023-08-30T10:30:42;24.50;99.90
3846;DHT22;1938;50.812;7.738;2023-08-30T10:33:12;24.40;99.90
3846;DHT22;1938;50.812;7.738;2023-08-30T10:35:47;24.10;99.90
3846;DHT22;1938;50.812;7.738;2023-08-30T10:38:24;24.00;99.90
3846;DHT22;1938;50.812;7.738;2023-08-30T10:40:51;23.70;99.90
3846;DHT22;1938;50.812;7.738;2023-08-30T10:43:17;23.30;99.90
3846;DHT22;1938;50.812;7.738;2023-08-30T10:46:02;23.30;99.90
3846;DHT22;1938;50.812;7.738;2023-08-30T10:48:38;23.50;99.90
3846;DHT22;1938;50.812;7.738;2023-08-30T10:51:16;23.40;99.90
3846;DHT22;1938;50.812;7.738;2023-08-30T10:53:57;23.30;99.90
3846;DHT22;1938;50.812;7.738;2023-08-30T10:56:28;23.50;99.90
3846;DHT22;1938;50.812;7.738;2023-08-30T10:58:54;23.60;99.90
3846;DHT22;1938;50.812;7.738;2023-08-30T11:01:21;23.50;99.90
3846;DHT22;1938;50.812;7.738;2023-08-30T11:03:49;23.60;99.90
3846;DHT22;1938;50.812;7.738;2023-08-30T11:06:15;23.50;99.90
3846;DHT22;1938;50.812;7.738;2023-08-30T11:08:43;23.40;99.90
3846;DHT22;1938;50.812;7.738;2023-08-30T11:11:10;23.20;99.90
3846;DHT22;1938;50.812;7.738;2023-08-30T11:13:37;23.10;99.90
3846;DHT22;1938;50.812;7.738;2023-08-30T11:16:03;23.20;99.90
3846;DHT22;1938;50.812;7.738;2023-08-30T11:18:38;23.30;99.90
3846;DHT22;1938;50.812;7.738;2023-08-30T11:21:09;23.30;99.90
3846;DHT22;1938;50.812;7.738;2023-08-30T11:23:35;23.10;99.90
3846;DHT22;1938;50.812;7.738;2023-08-30T11:26:01;23.00;99.90
3846;DHT22;1938;50.812;7.738;2023-08-30T11:28:29;22.80;99.90
3846;DHT22;1938;50.812;7.738;2023-08-30T11:30:55;22.50;99.90
3846;DHT22;1938;50.812;7.738;2023-08-30T11:33:21;22.00;99.90
3846;DHT22;1938;50.812;7.738;2023-08-30T11:35:51;21.70;99.90
3846;DHT22;1938;50.812;7.738;2023-08-30T11:38:17;21.30;99.90
3846;DHT22;1938;50.812;7.738;2023-08-30T11:40:44;21.20;99.90
3846;DHT22;1938;50.812;7.738;2023-08-30T11:43:09;20.80;99.90
3846;DHT22;1938;50.812;7.738;2023-08-30T11:45:35;20.60;99.90
3846;DHT22;1938;50.812;7.738;2023-08-30T11:48:01;20.60;99.90
3846;DHT22;1938;50.812;7.738;2023-08-30T11:50:28;20.50;99.90
3846;DHT22;1938;50.812;7.738;2023-08-30T11:52:55;20.40;99.90
3846;DHT22;1938;50.812;7.738;2023-08-30T11:55:22;20.10;99.90
3846;DHT22;1938;50.812;7.738;2023-08-30T11:57:51;20.10;99.90
3846;DHT22;1938;50.812;7.738;2023-08-30T12:00:19;20.20;99.90
3846;DHT22;1938;50.812;7.738;2023-08-30T12:02:48;20.30;99.90
3846;DHT22;1938;50.812;7.738;2023-08-30T12:05:14;20.40;99.90
3846;DHT22;1938;50.812;7.738;2023-08-30T12:07:39;20.50;99.90
3846;DHT22;1938;50.812;7.738;2023-08-30T12:10:11;20.60;99.90
3846;DHT22;1938;50.812;7.738;2023-08-30T12:12:37;20.60;99.90
3846;DHT22;1938;50.812;7.738;2023-08-30T12:15:13;20.50;99.90
3846;DHT22;1938;50.812;7.738;2023-08-30T12:17:39;20.50;99.90
3846;DHT22;1938;50.812;7.738;2023-08-30T12:20:05;20.30;99.90
3846;DHT22;1938;50.812;7.738;2023-08-30T12:22:41;20.30;99.90
3846;DHT22;1938;50.812;7.738;2023-08-30T12:25:20;20.20;99.90
3846;DHT22;1938;50.812;7.738;2023-08-30T12:27:47;20.00;99.90
3846;DHT22;1938;50.812;7.738;2023-08-30T12:30:16;20.00;99.90
3846;DHT22;1938;50.812;7.738;2023-08-30T12:32:43;19.80;99.90
3846;DHT22;1938;50.812;7.738;2023-08-30T12:35:09;19.70;99.90
3846;DHT22;1938;50.812;7.738;2023-08-30T12:37:36;19.70;99.90
3846;DHT22;1938;50.812;7.738;2023-08-30T12:40:01;19.70;99.90
3846;DHT22;1938;50.812;7.738;2023-08-30T12:42:29;19.70;99.90
3846;DHT22;1938;50.812;7.738;2023-08-30T12:44:54;19.70;99.90
3846;DHT22;1938;50.812;7.738;2023-08-30T12:47:20;19.50;99.90
3846;DHT22;1938;50.812;7.738;2023-08-30T12:49:46;19.50;99.90
3846;DHT22;1938;50.812;7.738;2023-08-30T12:52:11;19.30;99.90
3846;DHT22;1938;50.812;7.738;2023-08-30T12:54:37;19.20;99.90
3846;DHT22;1938;50.812;7.738;2023-08-30T12:57:03;19.20;99.90
3846;DHT22;1938;50.812;7.738;2023-08-30T12:59:29;19.10;99.90
3846;DHT22;1938;50.812;7.738;2023-08-30T13:01:54;19.00;99.90
3846;DHT22;1938;50.812;7.738;2023-08-30T13:04:20;18.90;99.90
3846;DHT22;1938;50.812;7.738;2023-08-30T13:06:45;18.80;99.90
3846;DHT22;1938;50.812;7.738;2023-08-30T13:09:11;18.60;99.90
3846;DHT22;1938;50.812;7.738;2023-08-30T13:11:37;18.60;99.90
3846;DHT22;1938;50.812;7.738;2023-08-30T13:14:02;18.50;1.00
3846;DHT22;1938;50.812;7.738;2023-08-30T13:16:28;18.50;1.00
3846;DHT22;1938;50.812;7.738;2023-08-30T13:18:53;18.40;1.00
3846;DHT22;1938;50.812;7.738;2023-08-30T13:21:19;18.30;1.00
3846;DHT22;1938;50.812;7.738;2023-08-30T13:23:44;18.30;1.00
3846;DHT22;1938;50.812;7.738;2023-08-30T13:26:10;18.30;1.00
3846;DHT22;1938;50.812;7.738;2023-08-30T13:28:36;18.20;1.00
3846;DHT22;1938;50.812;7.738;2023-08-30T13:31:01;18.20;99.90
3846;DHT22;1938;50.812;7.738;2023-08-30T13:33:27;18.10;99.90
3846;DHT22;1938;50.812;7.738;2023-08-30T13:35:53;18.20;1.00
3846;DHT22;1938;50.812;7.738;2023-08-30T13:38:19;18.10;1.00
3846;DHT22;1938;50.812;7.738;2023-08-30T13:40:45;18.20;13.60
3846;DHT22;1938;50.812;7.738;2023-08-30T13:43:11;18.10;99.90
3846;DHT22;1938;50.812;7.738;2023-08-30T13:45:36;18.10;47.80
3846;DHT22;1938;50.812;7.738;2023-08-30T13:48:02;17.90;99.90
3846;DHT22;1938;50.812;7.738;2023-08-30T13:50:27;17.80;99.90
3846;DHT22;1938;50.812;7.738;2023-08-30T13:52:58;17.60;1.00
3846;DHT22;1938;50.812;7.738;2023-08-30T13:55:25;17.50;1.00
3846;DHT22;1938;50.812;7.738;2023-08-30T13:57:50;17.30;99.90
3846;DHT22;1938;50.812;7.738;2023-08-30T14:00:16;17.20;99.90
3846;DHT22;1938;50.812;7.738;2023-08-30T14:02:42;17.20;1.00
3846;DHT22;1938;50.812;7.738;2023-08-30T14:05:08;17.20;1.00
3846;DHT22;1938;50.812;7.738;2023-08-30T14:07:34;17.10;99.90
3846;DHT22;1938;50.812;7.738;2023-08-30T14:10:01;16.90;1.00
3846;DHT22;1938;50.812;7.738;2023-08-30T14:12:26;16.90;1.70
3846;DHT22;1938;50.812;7.738;2023-08-30T14:14:52;16.90;99.90
3846;DHT22;1938;50.812;7.738;2023-08-30T14:17:19;16.90;99.90
3846;DHT22;1938;50.812;7.738;2023-08-30T14:19:44;16.80;1.00
3846;DHT22;1938;50.812;7.738;2023-08-30T14:22:10;16.80;16.60
3846;DHT22;1938;50.812;7.738;2023-08-30T14:24:35;16.60;95.60
3846;DHT22;1938;50.812;7.738;2023-08-30T14:27:01;16.60;1.00
3846;DHT22;1938;50.812;7.738;2023-08-30T14:29:27;16.60;99.90
3846;DHT22;1938;50.812;7.738;2023-08-30T14:31:53;16.50;99.90
3846;DHT22;1938;50.812;7.738;2023-08-30T14:34:20;16.50;99.90
3846;DHT22;1938;50.812;7.738;2023-08-30T14:36:46;16.40;99.90
3846;DHT22;1938;50.812;7.738;2023-08-30T14:39:13;16.30;1.00
3846;DHT22;1938;50.812;7.738;2023-08-30T14:41:40;16.20;88.50
3846;DHT22;1938;50.812;7.738;2023-08-30T14:44:06;16.20;99.90
3846;DHT22;1938;50.812;7.738;2023-08-30T14:46:33;16.30;99.90
3846;DHT22;1938;50.812;7.738;2023-08-30T14:48:58;16.30;99.90
3846;DHT22;1938;50.812;7.738;2023-08-30T14:51:24;16.30;99.90
3846;DHT22;1938;50.812;7.738;2023-08-30T14:53:49;16.40;99.90
3846;DHT22;1938;50.812;7.738;2023-08-30T14:56:15;16.50;99.90
3846;DHT22;1938;50.812;7.738;2023-08-30T14:58:42;16.60;99.90
3846;DHT22;1938;50.812;7.738;2023-08-30T15:01:09;16.70;99.90
3846;DHT22;1938;50.812;7.738;2023-08-30T15:03:35;16.80;1.00
3846;DHT22;1938;50.812;7.738;2023-08-30T15:06:01;16.80;99.90
3846;DHT22;1938;50.812;7.738;2023-08-30T15:08:27;16.80;99.90
3846;DHT22;1938;50.812;7.738;2023-08-30T15:10:53;16.90;1.00
3846;DHT22;1938;50.812;7.738;2023-08-30T15:13:19;17.00;1.00
3846;DHT22;1938;50.812;7.738;2023-08-30T15:15:45;17.00;1.00
3846;DHT22;1938;50.812;7.738;2023-08-30T15:18:11;17.10;3.20
3846;DHT22;1938;50.812;7.738;2023-08-30T15:20:36;17.10;1.00
3846;DHT22;1938;50.812;7.738;2023-08-30T15:23:02;17.10;1.00
3846;DHT22;1938;50.812;7.738;2023-08-30T15:25:28;17.10;1.50
3846;DHT22;1938;50.812;7.738;2023-08-30T15:27:54;17.10;1.00
3846;DHT22;1938;50.812;7.738;2023-08-30T15:30:19;17.10;1.00
3846;DHT22;1938;50.812;7.738;2023-08-30T15:32:45;16.90;77.40
3846;DHT22;1938;50.812;7.738;2023-08-30T15:35:10;16.70;1.00
3846;DHT22;1938;50.812;7.738;2023-08-30T15:37:36;16.30;99.90
3846;DHT22;1938;50.812;7.738;2023-08-30T15:40:03;16.00;1.00
3846;DHT22;1938;50.812;7.738;2023-08-30T15:42:34;15.80;99.90
3846;DHT22;1938;50.812;7.738;2023-08-30T15:45:01;15.60;99.90
3846;DHT22;1938;50.812;7.738;2023-08-30T15:47:26;15.40;99.90
3846;DHT22;1938;50.812;7.738;2023-08-30T15:49:52;15.20;99.90
3846;DHT22;1938;50.812;7.738;2023-08-30T15:52:19;15.20;99.90
3846;DHT22;1938;50.812;7.738;2023-08-30T15:54:45;15.20;99.90
3846;DHT22;1938;50.812;7.738;2023-08-30T15:57:10;15.10;99.90
3846;DHT22;1938;50.812;7.738;2023-08-30T15:59:36;15.00;99.90
3846;DHT22;1938;50.812;7.738;2023-08-30T16:02:01;15.10;1.00
3846;DHT22;1938;50.812;7.738;2023-08-30T16:04:27;15.20;1.00
3846;DHT22;1938;50.812;7.738;2023-08-30T16:06:52;15.20;15.70
3846;DHT22;1938;50.812;7.738;2023-08-30T16:09:18;15.30;1.00
3846;DHT22;1938;50.812;7.738;2023-08-30T16:11:44;15.30;1.00
3846;DHT22;1938;50.812;7.738;2023-08-30T16:14:11;15.30;1.00